createdAt,value
2018-11-11T00:01:53.140Z,11.81
2018-11-11T00:22:33.425Z,11.73
2018-11-11T00:43:12.897Z,11.62
2018-11-11T01:03:51.957Z,11.63
2018-11-11T01:24:32.665Z,11.65
2018-11-11T01:45:17.862Z,11.69
2018-11-11T02:05:56.921Z,11.72
2018-11-11T02:26:33.117Z,11.73
2018-11-11T02:47:11.358Z,11.79
2018-11-11T03:07:49.615Z,11.78
2018-11-11T03:28:28.250Z,11.74
2018-11-11T03:49:06.496Z,11.61
2018-11-11T04:09:43.508Z,11.66
2018-11-11T04:30:27.077Z,11.64
2018-11-11T04:51:07.365Z,11.56
2018-11-11T05:11:45.602Z,11.45
2018-11-11T05:32:25.898Z,11.41
2018-11-11T05:53:08.244Z,11.38
2018-11-11T06:13:48.129Z,11.37
2018-11-11T06:34:27.593Z,11.36
2018-11-11T06:55:07.873Z,11.33
2018-11-11T07:33:48.710Z,11.39
2018-11-11T07:54:24.904Z,11.45
2018-11-11T08:15:06.422Z,11.59
2018-11-11T08:35:46.894Z,11.71
2018-11-11T08:56:24.956Z,11.89
2018-11-11T09:17:03.387Z,12.09
2018-11-11T09:37:42.259Z,12.28
2018-11-11T09:58:20.503Z,12.48
2018-11-11T10:19:08.266Z,12.63
2018-11-11T11:01:31.442Z,13.09
2018-11-11T11:22:11.310Z,13.36
2018-11-11T11:42:53.111Z,13.70
2018-11-11T12:03:31.877Z,13.77
2018-11-11T12:24:12.572Z,13.90
2018-11-11T12:44:54.597Z,14.05
2018-11-11T13:05:32.121Z,14.21
2018-11-11T13:26:12.398Z,14.20
2018-11-11T13:46:49.669Z,14.34
2018-11-11T14:07:26.656Z,14.43
2018-11-11T14:28:06.127Z,14.32
2018-11-11T14:48:49.483Z,14.00
2018-11-11T15:09:27.525Z,13.59
2018-11-11T15:30:04.957Z,13.25
2018-11-11T15:50:43.199Z,12.99
2018-11-11T16:11:21.441Z,12.70
2018-11-11T16:32:01.735Z,12.28
2018-11-11T16:52:42.017Z,12.01
2018-11-11T17:13:21.078Z,11.63
2018-11-11T17:34:00.549Z,11.40
2018-11-11T17:54:42.909Z,11.23
2018-11-11T18:15:24.819Z,11.06
2018-11-11T18:36:03.483Z,11.00
2018-11-11T18:56:51.592Z,10.97
2018-11-11T19:35:31.560Z,11.02
2018-11-11T19:56:11.027Z,11.09
2018-11-11T20:16:51.352Z,11.09
2018-11-11T20:37:31.198Z,10.98
2018-11-11T20:58:09.854Z,10.87
2018-11-11T21:18:48.913Z,11.00
2018-11-11T21:39:30.429Z,10.99
2018-11-11T22:00:16.459Z,11.10
2018-11-11T22:20:55.932Z,11.23
2018-11-11T22:41:34.171Z,11.26
2018-11-11T23:02:09.142Z,11.23
2018-11-11T23:22:51.478Z,11.08
2018-11-11T23:43:29.719Z,10.79
